Time;durP1;ratioP1;P1;durP2;ratioP2;P2;SDS_P1;SDS_P2;PMS_P1;PMS_P2;Temp;Humidity;BMP_temperature;BMP_pressure;BME280_temperature;BME280_humidity;BME280_pressure;Samples;Min_cycle;Max_cycle;Signal;HPM_P1;HPM_P2
2021/01/08 00:01:04;;;;;;;1.72;0.50;;;;;;;3.07;71.74;99651.09;1711202;83;21467;-56
2021/01/08 00:03:31;;;;;;;2.42;0.78;;;;;;;3.05;71.73;99646.93;1712085;83;21210;-56
2021/01/08 00:05:59;;;;;;;1.72;0.57;;;;;;;3.02;71.64;99656.20;1690064;83;21188;-56
2021/01/08 00:08:27;;;;;;;2.15;0.65;;;;;;;2.98;71.82;99655.56;1706241;83;21195;-55
2021/01/08 00:10:55;;;;;;;2.10;0.57;;;;;;;3.02;71.60;99663.53;1743220;80;21160;-56
2021/01/08 00:13:22;;;;;;;1.72;0.53;;;;;;;3.11;71.31;99657.80;1762245;80;21390;-56
2021/01/08 00:15:49;;;;;;;2.20;0.60;;;;;;;3.14;70.80;99661.51;1757615;80;21172;-55
2021/01/08 00:18:17;;;;;;;2.12;0.50;;;;;;;3.10;70.66;99648.31;1759658;80;21164;-56
2021/01/08 00:20:44;;;;;;;2.58;0.60;;;;;;;3.06;70.57;99655.94;1752241;80;21586;-56
2021/01/08 00:23:12;;;;;;;2.22;0.85;;;;;;;3.02;70.38;99658.33;1760325;80;21199;-56
2021/01/08 00:25:40;;;;;;;1.65;0.60;;;;;;;3.05;70.51;99665.95;1761871;80;21349;-56
2021/01/08 00:28:09;;;;;;;3.72;1.02;;;;;;;3.16;69.78;99663.98;1761391;80;21116;-56
2021/01/08 00:30:36;;;;;;;1.92;0.53;;;;;;;3.20;69.61;99662.06;1760187;80;21824;-55
2021/01/08 00:33:03;;;;;;;1.72;0.60;;;;;;;3.13;69.43;99670.23;1763208;80;21204;-55
2021/01/08 00:35:31;;;;;;;2.75;0.82;;;;;;;3.07;69.45;99671.06;1753245;80;21132;-56
2021/01/08 00:37:59;;;;;;;2.95;0.70;;;;;;;3.01;69.30;99682.67;1754012;80;21221;-56
2021/01/08 00:40:26;;;;;;;1.50;0.50;;;;;;;3.01;69.01;99692.21;1758335;80;21222;-56
2021/01/08 00:42:53;;;;;;;3.12;0.78;;;;;;;3.09;68.35;99686.09;1751056;80;21179;-56
2021/01/08 00:45:22;;;;;;;2.15;0.65;;;;;;;3.09;68.59;99684.35;1756708;80;21567;-56
2021/01/08 00:47:50;;;;;;;2.50;0.80;;;;;;;3.07;68.71;99684.88;1759475;80;21142;-56
2021/01/08 00:50:18;;;;;;;2.35;0.72;;;;;;;3.03;69.02;99678.21;1763369;80;21797;-56
2021/01/08 00:52:46;;;;;;;2.35;0.70;;;;;;;3.01;68.82;99687.87;1762652;80;21187;-56
2021/01/08 00:55:14;;;;;;;2.00;0.65;;;;;;;3.04;68.96;99686.84;1757267;80;21167;-56
2021/01/08 00:57:43;;;;;;;2.67;0.80;;;;;;;3.13;68.78;99695.39;1755503;80;21096;-57
2021/01/08 01:00:13;;;;;;;2.27;0.78;;;;;;;3.16;68.83;99709.05;1755586;80;21148;-56
2021/01/08 01:02:43;;;;;;;2.87;0.70;;;;;;;3.11;68.86;99714.98;1756426;80;23437;-56
2021/01/08 01:05:11;;;;;;;2.67;0.60;;;;;;;3.05;69.23;99726.20;1752426;80;21192;-56
2021/01/08 01:07:39;;;;;;;1.62;0.50;;;;;;;3.02;69.27;99696.02;1748471;80;21223;-56
2021/01/08 01:10:09;;;;;;;3.25;0.75;;;;;;;3.01;69.35;99716.46;1749115;80;21187;-55
2021/01/08 01:12:36;;;;;;;2.58;0.50;;;;;;;3.09;69.08;99710.79;1752264;80;21152;-56
2021/01/08 01:15:07;;;;;;;1.42;0.40;;;;;;;3.12;68.60;99717.94;1760521;80;22043;-56
2021/01/08 01:17:41;;;;;;;2.40;0.65;;;;;;;3.09;68.42;99719.44;1755569;80;21176;-56
2021/01/08 01:20:12;;;;;;;2.22;0.65;;;;;;;3.06;68.37;99718.32;1758865;80;21195;-55
2021/01/08 01:22:39;;;;;;;1.75;0.55;;;;;;;3.03;68.58;99721.57;1753864;80;21642;-56
2021/01/08 01:25:09;;;;;;;1.90;0.60;;;;;;;3.00;68.80;99723.88;1747919;80;21155;-56
2021/01/08 01:27:38;;;;;;;1.32;0.40;;;;;;;3.07;69.04;99717.84;1757123;80;21374;-55
2021/01/08 01:30:09;;;;;;;1.85;0.60;;;;;;;3.15;69.21;99716.45;1751824;80;21215;-55
2021/01/08 01:32:36;;;;;;;2.22;0.80;;;;;;;3.16;69.31;99720.74;1756725;80;21128;-55
2021/01/08 01:35:06;;;;;;;2.00;0.70;;;;;;;3.15;69.63;99729.45;1748424;80;21159;-57
2021/01/08 01:37:34;;;;;;;2.47;0.75;;;;;;;3.08;69.62;99721.66;1754474;80;21594;-57
2021/01/08 01:40:03;;;;;;;2.20;0.53;;;;;;;3.03;69.97;99723.70;1762598;80;21200;-56
2021/01/08 01:42:30;;;;;;;2.35;0.62;;;;;;;3.08;70.00;99742.45;1767821;80;21187;-56
2021/01/08 01:44:57;;;;;;;2.45;0.85;;;;;;;3.18;69.73;99727.16;1756975;80;21195;-56
2021/01/08 01:47:26;;;;;;;1.75;0.45;;;;;;;3.22;69.44;99730.40;1755417;80;21129;-56
2021/01/08 01:49:53;;;;;;;2.30;0.90;;;;;;;3.21;69.33;99724.38;1758057;80;21160;-55
2021/01/08 01:52:21;;;;;;;2.08;0.55;;;;;;;3.15;69.38;99734.66;1741969;81;21372;-55
2021/01/08 01:54:48;;;;;;;1.62;0.60;;;;;;;3.14;69.60;99726.50;1759113;80;21195;-56
2021/01/08 01:57:16;;;;;;;3.87;1.12;;;;;;;3.16;69.87;99729.84;1760525;80;21128;-57
2021/01/08 01:59:43;;;;;;;4.55;1.32;;;;;;;3.28;69.74;99738.67;1759301;80;22125;-57
2021/01/08 02:02:27;;;;;;;3.33;1.25;;;;;;;3.32;69.75;99740.62;1760180;80;21148;-56
2021/01/08 02:04:56;;;;;;;3.98;1.60;;;;;;;3.29;69.99;99744.22;1756622;80;21479;-55
2021/01/08 02:07:24;;;;;;;4.60;1.62;;;;;;;3.24;70.08;99744.14;1755272;80;21144;-55
2021/01/08 02:09:51;;;;;;;3.62;1.30;;;;;;;3.19;69.77;99757.87;1761644;80;21446;-55
2021/01/08 02:12:19;;;;;;;4.83;1.67;;;;;;;3.20;69.84;99764.28;1754701;81;21153;-55
2021/01/08 02:14:46;;;;;;;3.37;1.17;;;;;;;3.30;69.70;99741.18;1750424;81;21144;-56
2021/01/08 02:17:14;;;;;;;4.28;1.70;;;;;;;3.33;69.55;99746.20;1753273;81;21381;-56
2021/01/08 02:19:50;;;;;;;3.77;1.60;;;;;;;3.32;69.71;99751.84;1754248;81;21507;-56
2021/01/08 02:22:25;;;;;;;3.63;1.23;;;;;;;3.30;69.40;99747.68;1749481;81;21169;-56
2021/01/08 02:25:01;;;;;;;3.15;0.95;;;;;;;3.27;69.73;99747.39;1751420;81;21833;-56
2021/01/08 02:27:28;;;;;;;;;;;;;;;3.23;69.24;99769.75;1751261;81;21131;-55
2021/01/08 02:29:55;;;;;;;4.00;1.20;;;;;;;3.30;69.49;99765.88;1748981;81;21365;-55
2021/01/08 02:32:25;;;;;;;4.50;1.37;;;;;;;3.31;69.29;99760.59;1743176;80;21743;-56
2021/01/08 02:34:53;;;;;;;3.15;1.20;;;;;;;3.32;69.50;99775.72;1756729;81;21117;-57
2021/01/08 02:37:20;;;;;;;3.42;1.30;;;;;;;3.25;69.47;99788.72;1743357;81;21169;-55
2021/01/08 02:39:48;;;;;;;4.20;1.20;;;;;;;3.21;69.74;99754.72;1752159;81;21097;-55
2021/01/08 02:42:16;;;;;;;3.33;1.35;;;;;;;3.18;70.05;99766.59;1750600;81;21439;-56
2021/01/08 02:44:43;;;;;;;3.62;1.27;;;;;;;3.23;69.84;99755.01;1740238;81;21136;-56
2021/01/08 02:47:11;;;;;;;3.15;0.93;;;;;;;3.33;69.54;99763.93;1743917;81;21113;-56
2021/01/08 02:49:39;;;;;;;2.95;1.20;;;;;;;3.36;69.22;99769.39;1760701;81;21200;-56
2021/01/08 02:52:06;;;;;;;4.58;1.25;;;;;;;3.32;69.20;99771.34;1752747;81;21156;-55
2021/01/08 02:54:33;;;;;;;3.77;1.22;;;;;;;3.29;69.31;99774.59;1754245;81;21681;-56
2021/01/08 02:57:01;;;;;;;4.28;1.37;;;;;;;3.25;69.25;99782.22;1732474;81;22009;-55
2021/01/08 02:59:28;;;;;;;2.95;1.00;;;;;;;3.24;69.36;99789.64;1740554;81;21200;-55
2021/01/08 03:01:56;;;;;;;4.10;0.93;;;;;;;3.32;69.08;99788.25;1753941;81;21395;-56
2021/01/08 03:04:25;;;;;;;4.08;0.98;;;;;;;3.40;68.66;99810.39;1745822;81;21166;-55
2021/01/08 03:06:54;;;;;;;3.08;1.20;;;;;;;3.36;68.70;99799.30;1750813;81;21374;-56
2021/01/08 03:09:21;;;;;;;3.75;1.10;;;;;;;3.30;68.90;99804.89;1742779;81;21631;-55
2021/01/08 03:11:54;;;;;;;2.85;1.30;;;;;;;3.27;69.01;99794.19;1731040;81;21121;-55
2021/01/08 03:14:21;;;;;;;2.65;1.02;;;;;;;3.25;68.99;99802.55;1744650;81;21208;-55
2021/01/08 03:16:49;;;;;;;4.03;0.95;;;;;;;3.29;69.02;99806.62;1676221;84;21129;-56
2021/01/08 03:19:17;;;;;;;3.90;1.12;;;;;;;3.41;68.76;99806.84;1677903;84;21209;-56
2021/01/08 03:21:44;;;;;;;4.22;1.30;;;;;;;3.44;68.30;99819.19;1753284;81;21500;-56
2021/01/08 03:24:11;;;;;;;3.30;1.10;;;;;;;3.41;68.19;99817.24;1753834;81;21528;-55
2021/01/08 03:26:39;;;;;;;3.10;0.98;;;;;;;3.39;68.50;99812.13;1748004;81;21168;-56
2021/01/08 03:29:07;;;;;;;5.22;1.65;;;;;;;3.34;68.30;99822.80;1753245;81;21171;-55
2021/01/08 03:31:34;;;;;;;3.12;1.15;;;;;;;3.32;68.42;99829.03;1755604;81;23457;-56
2021/01/08 03:34:02;;;;;;;3.67;1.20;;;;;;;3.40;68.60;99829.89;1748089;81;21164;-55
2021/01/08 03:36:30;;;;;;;3.75;1.37;;;;;;;3.42;68.01;99831.46;1749725;81;21156;-55
2021/01/08 03:38:57;;;;;;;3.87;1.57;;;;;;;3.40;68.24;99832.02;1754164;81;21184;-55
2021/01/08 03:41:24;;;;;;;4.08;1.47;;;;;;;3.37;68.44;99834.80;1745393;81;21409;-55
2021/01/08 03:43:52;;;;;;;3.87;1.27;;;;;;;3.34;68.43;99831.07;1742375;81;21196;-56
2021/01/08 03:46:19;;;;;;;5.10;1.40;;;;;;;3.29;68.61;99834.41;1742214;81;21153;-55
2021/01/08 03:48:47;;;;;;;3.02;1.27;;;;;;;3.33;68.52;99844.55;1748475;81;21145;-55
2021/01/08 03:51:15;;;;;;;3.55;1.52;;;;;;;3.40;68.54;99833.80;1756794;81;21117;-55
2021/01/08 03:53:42;;;;;;;2.95;1.15;;;;;;;3.38;68.54;99872.89;1749033;81;21580;-56
2021/01/08 03:56:10;;;;;;;4.15;1.62;;;;;;;3.35;68.63;99855.69;1752989;80;21199;-56
2021/01/08 03:58:37;;;;;;;4.15;1.67;;;;;;;3.32;68.87;99849.84;1745365;81;21208;-55
2021/01/08 04:01:05;;;;;;;3.45;1.70;;;;;;;3.36;68.96;99856.52;1751922;81;21153;-55
2021/01/08 04:03:33;;;;;;;3.47;0.93;;;;;;;3.45;68.62;99856.47;1744196;81;21184;-52
2021/01/08 04:06:00;;;;;;;5.15;1.57;;;;;;;3.50;68.35;99850.05;1750940;81;21172;-53
2021/01/08 04:08:28;;;;;;;4.00;1.67;;;;;;;3.51;68.40;99848.28;1746950;81;22010;-53
2021/01/08 04:10:55;;;;;;;3.27;1.47;;;;;;;3.49;68.32;99848.84;1741915;81;21211;-55
2021/01/08 04:13:22;;;;;;;3.55;1.57;;;;;;;3.47;67.99;99858.03;1748185;80;21092;-54
2021/01/08 04:15:50;;;;;;;3.85;1.40;;;;;;;3.42;67.94;99858.77;1754301;80;21218;-55
2021/01/08 04:18:18;;;;;;;4.08;1.60;;;;;;;3.44;68.20;99866.02;1758238;80;21123;-54
2021/01/08 04:20:46;;;;;;;4.00;1.75;;;;;;;3.54;67.80;99877.55;1748956;80;21193;-54
2021/01/08 04:23:14;;;;;;;5.58;1.85;;;;;;;3.60;67.54;99873.77;1749810;80;21152;-55
2021/01/08 04:25:41;;;;;;;3.80;1.60;;;;;;;3.58;67.54;99844.84;1747655;80;21441;-54
2021/01/08 04:28:08;;;;;;;5.15;1.77;;;;;;;3.52;67.61;99869.00;1694045;84;21188;-55
2021/01/08 04:30:36;;;;;;;5.17;2.33;;;;;;;3.46;67.66;99869.83;1715171;82;21196;-55
2021/01/08 04:33:04;;;;;;;5.15;2.20;;;;;;;3.42;67.78;99878.75;1707352;83;21404;-54
2021/01/08 04:35:32;;;;;;;4.95;1.75;;;;;;;3.45;68.00;99880.70;1699296;83;21136;-55
2021/01/08 04:37:59;;;;;;;4.53;2.02;;;;;;;3.57;67.76;99877.02;1696745;83;21160;-55
2021/01/08 04:40:29;;;;;;;5.33;2.27;;;;;;;3.60;67.47;99882.02;1700155;83;21670;-54
2021/01/08 04:42:56;;;;;;;5.83;2.25;;;;;;;3.58;67.55;99886.03;1681922;83;21658;-55
2021/01/08 04:45:24;;;;;;;5.67;2.30;;;;;;;3.53;67.64;99873.73;1695066;83;21291;-55
2021/01/08 04:47:52;;;;;;;5.58;2.85;;;;;;;3.48;67.68;99904.38;1698957;83;21211;-55
2021/01/08 04:50:19;;;;;;;5.17;2.40;;;;;;;3.41;67.66;99898.70;1699488;83;21148;-54
2021/01/08 04:52:47;;;;;;;6.08;2.30;;;;;;;3.43;67.69;99893.41;1691853;83;21227;-54
2021/01/08 04:55:15;;;;;;;6.78;2.85;;;;;;;3.52;67.41;99901.99;1691393;83;21192;-55
2021/01/08 04:57:43;;;;;;;4.33;2.37;;;;;;;3.57;67.28;99900.43;1695533;83;22358;-54
2021/01/08 05:00:12;;;;;;;6.25;2.80;;;;;;;3.52;67.53;99941.02;1680201;83;21230;-53
2021/01/08 05:02:40;;;;;;;6.22;2.72;;;;;;;3.48;67.65;99896.58;1677984;83;21160;-55
2021/01/08 05:05:10;;;;;;;6.47;3.40;;;;;;;3.42;68.00;99894.35;1675480;83;21199;-55
2021/01/08 05:07:37;;;;;;;8.63;3.35;;;;;;;3.39;68.18;99891.45;1702285;83;21196;-56
2021/01/08 05:10:08;;;;;;;8.40;4.47;;;;;;;3.46;68.08;99887.59;1701613;83;21349;-56
2021/01/08 05:12:43;;;;;;;8.35;4.05;;;;;;;3.51;67.72;99912.02;1668342;83;21145;-55
2021/01/08 05:15:13;;;;;;;8.18;3.75;;;;;;;3.50;67.84;99901.25;1671522;85;21644;-56
2021/01/08 05:17:41;;;;;;;7.97;3.98;;;;;;;3.45;67.98;99916.29;1661592;85;21766;-56
2021/01/08 05:20:12;;;;;;;6.87;3.22;;;;;;;3.40;68.17;99911.34;1667477;85;21190;-56
2021/01/08 05:22:40;;;;;;;7.65;3.30;;;;;;;3.37;68.13;99910.69;1660885;85;21230;-56
2021/01/08 05:25:13;;;;;;;6.80;3.65;;;;;;;3.41;68.23;99919.50;1664847;85;21245;-56
2021/01/08 05:27:40;;;;;;;7.50;3.92;;;;;;;3.49;67.83;99919.90;1669102;85;21573;-56
2021/01/08 05:30:23;;;;;;;10.65;4.60;;;;;;;3.47;67.68;99929.56;1673705;85;21229;-56
2021/01/08 05:33:01;;;;;;;8.38;4.50;;;;;;;3.43;67.70;99915.08;1667909;85;21202;-54
2021/01/08 05:35:31;;;;;;;9.55;4.20;;;;;;;3.40;67.86;99915.25;1679666;85;21213;-56
2021/01/08 05:38:06;;;;;;;9.68;4.87;;;;;;;3.37;68.06;99921.09;1661028;85;21640;-55
2021/01/08 05:40:36;;;;;;;7.80;3.70;;;;;;;3.39;68.00;99945.24;1669965;85;21189;-56
2021/01/08 05:43:04;;;;;;;10.05;4.47;;;;;;;3.50;67.85;99939.80;1653279;85;21626;-59
2021/01/08 05:45:32;;;;;;;10.23;5.12;;;;;;;3.54;67.51;99956.89;1689129;84;21139;-57
2021/01/08 05:48:02;;;;;;;11.45;5.05;;;;;;;3.52;67.65;99941.84;1747379;81;21365;-56
2021/01/08 05:50:30;;;;;;;9.43;4.50;;;;;;;3.50;67.79;99953.28;1744869;81;21251;-56
2021/01/08 05:53:03;;;;;;;11.93;5.58;;;;;;;3.46;67.97;99952.63;1748382;80;21180;-59
2021/01/08 05:55:40;;;;;;;11.88;5.67;;;;;;;3.43;67.87;99959.30;1742505;81;21155;-56
2021/01/08 05:58:24;;;;;;;12.15;5.62;;;;;;;3.44;67.94;99960.95;1750169;81;21184;-56
2021/01/08 06:01:02;;;;;;;10.85;5.33;;;;;;;3.55;67.69;99970.76;1747538;81;21179;-56
2021/01/08 06:03:31;;;;;;;11.97;6.40;;;;;;;3.59;67.55;99971.41;1741368;81;21414;-56
2021/01/08 06:06:00;;;;;;;11.20;5.92;;;;;;;3.56;67.64;99966.38;1743915;79;21200;-55
2021/01/08 06:08:44;;;;;;;12.20;6.53;;;;;;;3.51;67.27;99983.55;1745966;81;21191;-55
2021/01/08 06:11:23;;;;;;;10.43;5.67;;;;;;;3.47;67.56;99983.36;1749006;80;21263;-61
2021/01/08 06:13:55;;;;;;;12.65;6.58;;;;;;;3.43;67.76;99984.44;1747472;81;21294;-56
2021/01/08 06:16:22;;;;;;;14.38;6.33;;;;;;;3.46;67.83;99990.34;1746651;81;21231;-56
2021/01/08 06:18:53;;;;;;;11.35;6.35;;;;;;;3.56;67.30;99996.30;1745730;81;21152;-55
2021/01/08 06:21:25;;;;;;;12.15;6.75;;;;;;;3.58;67.24;100004.84;1734388;81;21147;-57
2021/01/08 06:23:53;;;;;;;12.03;6.67;;;;;;;3.52;67.17;100032.06;1739828;81;21199;-56
2021/01/08 06:27:24;;;;;;;13.88;7.50;;;;;;;3.49;67.58;100001.02;1853983;76;22578;-54
2021/01/08 06:29:57;;;;;;;13.88;6.65;;;;;;;3.45;67.54;100008.16;1796703;77;21512;-54
2021/01/08 06:32:25;;;;;;;12.88;7.75;;;;;;;3.44;67.53;100023.37;1831548;77;21347;-55
2021/01/08 06:34:52;;;;;;;11.30;6.55;;;;;;;3.47;67.50;100020.61;1831177;77;21183;-54
2021/01/08 06:37:23;;;;;;;15.90;8.33;;;;;;;3.55;67.05;100013.69;1825192;77;21156;-55
2021/01/08 06:39:50;;;;;;;11.33;6.35;;;;;;;3.58;67.22;100025.22;1815099;77;21195;-53
2021/01/08 06:42:30;;;;;;;14.07;7.28;;;;;;;3.57;67.17;100041.75;1825299;77;21214;-55
2021/01/08 06:44:59;;;;;;;14.98;7.12;;;;;;;3.51;67.25;100027.33;1826363;77;21374;-54
2021/01/08 06:50:08;;;;;;;13.53;7.47;;;;;;;3.43;67.60;100039.06;1801296;77;22093;-54
2021/01/08 06:52:40;;;;;;;13.28;7.53;;;;;;;3.46;67.43;100044.96;1719214;80;21175;-53
2021/01/08 06:55:10;;;;;;;16.52;8.38;;;;;;;3.57;67.20;100045.65;1717301;80;21300;-55
2021/01/08 06:57:37;;;;;;;18.25;7.72;;;;;;;3.62;67.09;100063.61;1743392;80;21202;-54
2021/01/08 07:00:06;;;;;;;12.50;7.20;;;;;;;3.60;67.01;100053.72;1713225;80;21600;-54
2021/01/08 07:02:36;;;;;;;17.55;8.35;;;;;;;3.54;67.11;100058.82;1764666;80;21203;-55
2021/01/08 07:05:07;;;;;;;15.18;8.38;;;;;;;3.50;67.35;100065.97;1720109;80;21215;-55
2021/01/08 07:07:36;;;;;;;16.75;7.58;;;;;;;3.47;67.04;100086.94;1762543;78;21285;-55
2021/01/08 07:10:05;;;;;;;12.15;6.72;;;;;;;3.41;67.05;100083.36;1761904;80;21195;-55
2021/01/08 07:12:32;;;;;;;13.28;7.37;;;;;;;3.42;67.12;100078.55;1732670;80;21745;-56
2021/01/08 07:15:00;;;;;;;12.78;6.97;;;;;;;3.48;66.82;100079.53;1707677;80;21171;-55
2021/01/08 07:17:33;;;;;;;15.68;8.25;;;;;;;3.44;66.87;100075.40;1775585;80;21195;-55
2021/01/08 07:20:04;;;;;;;14.73;7.25;;;;;;;3.40;67.10;100077.80;1713532;83;21493;-55
2021/01/08 07:22:39;;;;;;;14.73;7.67;;;;;;;3.37;67.24;100083.17;1707099;81;21258;-55
2021/01/08 07:25:13;;;;;;;15.15;8.10;;;;;;;3.32;67.29;100081.28;1695209;83;21219;-54
2021/01/08 07:27:41;;;;;;;11.00;6.00;;;;;;;3.28;67.30;100085.82;1724007;81;21199;-55
2021/01/08 07:30:10;;;;;;;12.85;7.87;;;;;;;3.36;67.25;100082.78;1736207;81;21223;-55
2021/01/08 07:32:44;;;;;;;12.60;6.87;;;;;;;3.46;67.10;100091.78;1704179;82;21211;-56
2021/01/08 07:35:30;;;;;;;11.33;7.15;;;;;;;3.54;66.89;100105.18;1728549;81;21243;-56
2021/01/08 07:38:15;;;;;;;12.70;7.90;;;;;;;3.49;66.77;100095.49;1715470;82;21151;-55
2021/01/08 07:40:56;;;;;;;13.43;7.25;;;;;;;3.46;66.88;100107.83;1727937;81;21152;-56
2021/01/08 07:43:35;;;;;;;14.60;7.22;;;;;;;3.41;67.30;100097.67;1705969;81;21163;-56
2021/01/08 07:46:05;;;;;;;13.30;6.85;;;;;;;3.38;67.05;100099.60;1730094;80;21252;-55
2021/01/08 07:48:39;;;;;;;11.53;6.85;;;;;;;3.34;67.14;100110.64;1700687;81;21565;-55
2021/01/08 07:51:10;;;;;;;15.47;6.83;;;;;;;3.42;67.02;100100.66;1750376;80;21172;-56
2021/01/08 07:56:26;;;;;;;14.55;7.42;;;;;;;3.50;66.98;100104.16;1790496;79;23159;-55
2021/01/08 07:59:03;;;;;;;16.40;7.10;;;;;;;3.45;66.87;100116.11;1777059;79;21199;-56
2021/01/08 08:01:32;;;;;;;11.12;6.03;;;;;;;3.44;66.94;100112.28;1778051;79;22217;-56
2021/01/08 08:04:09;;;;;;;12.45;7.05;;;;;;;3.39;66.48;100125.53;1776003;79;21955;-56
2021/01/08 08:06:41;;;;;;;12.37;6.17;;;;;;;3.34;66.88;100111.47;1740564;80;21192;-56
2021/01/08 08:09:13;;;;;;;16.93;7.45;;;;;;;3.43;66.83;100106.25;1716381;82;21196;-55
2021/01/08 08:11:42;;;;;;;13.05;7.80;;;;;;;3.50;66.58;100107.59;1735781;81;21707;-55
2021/01/08 08:14:18;;;;;;;13.05;6.35;;;;;;;3.49;66.51;100130.61;1745740;80;21264;-55
2021/01/08 08:16:45;;;;;;;13.45;7.62;;;;;;;3.45;66.46;100121.31;1719456;82;22365;-55
2021/01/08 08:19:15;;;;;;;15.72;6.87;;;;;;;3.40;66.80;100119.89;1711698;82;21227;-55
2021/01/08 08:21:49;;;;;;;14.93;7.65;;;;;;;3.37;66.99;100122.19;1714811;82;21179;-56
2021/01/08 08:24:17;;;;;;;12.98;7.40;;;;;;;3.37;66.79;100126.09;1711718;81;21219;-56
2021/01/08 08:26:47;;;;;;;14.07;7.78;;;;;;;3.45;66.75;100115.28;1745023;80;23029;-55
2021/01/08 08:29:16;;;;;;;15.55;7.25;;;;;;;3.56;66.56;100119.88;1708855;82;21650;-56
2021/01/08 08:31:47;;;;;;;13.35;7.22;;;;;;;3.56;65.97;100136.31;1742465;80;21211;-55
2021/01/08 08:34:16;;;;;;;14.38;8.08;;;;;;;3.52;66.18;100120.04;1732679;81;21193;-56
2021/01/08 08:36:43;;;;;;;13.65;8.18;;;;;;;3.50;66.41;100127.57;1739777;81;21482;-56
2021/01/08 08:39:14;;;;;;;14.33;7.28;;;;;;;3.47;66.26;100124.66;1710621;81;21595;-56
2021/01/08 08:41:46;;;;;;;14.80;7.37;;;;;;;3.46;66.30;100137.30;1712382;81;21184;-55
2021/01/08 08:44:16;;;;;;;11.43;7.50;;;;;;;3.50;66.39;100132.77;1709777;81;21148;-54
2021/01/08 08:46:55;;;;;;;11.85;6.75;;;;;;;3.63;65.60;100132.91;1719724;81;21191;-54
2021/01/08 08:49:34;;;;;;;13.55;6.92;;;;;;;3.67;65.25;100143.55;1714725;81;21616;-55
2021/01/08 08:52:05;;;;;;;15.08;7.83;;;;;;;3.61;65.62;100139.50;1715134;82;21508;-54
2021/01/08 08:54:38;;;;;;;14.53;7.45;;;;;;;3.56;65.37;100149.33;1719547;81;21222;-54
2021/01/08 08:57:08;;;;;;;10.45;6.20;;;;;;;3.51;65.80;100148.30;1712120;83;21228;-55
2021/01/08 08:59:44;;;;;;;12.37;6.72;;;;;;;3.52;65.79;100150.43;1708392;83;21228;-55
2021/01/08 09:02:28;;;;;;;14.73;5.62;;;;;;;3.51;65.42;100148.30;1699495;83;21204;-55
2021/01/08 09:04:58;;;;;;;14.75;6.83;;;;;;;3.52;65.13;100164.73;1696264;83;25161;-54
2021/01/08 09:07:40;;;;;;;9.95;5.92;;;;;;;3.62;64.94;100153.38;1700008;83;22026;-55
2021/01/08 09:10:13;;;;;;;10.80;5.65;;;;;;;3.70;64.56;100155.92;1693097;83;21604;-55
2021/01/08 09:13:15;;;;;;;12.47;6.03;;;;;;;3.70;64.79;100148.59;1699985;83;21444;-55
2021/01/08 09:16:12;;;;;;;10.53;6.00;;;;;;;3.67;64.24;100169.57;1667365;83;21473;-55
2021/01/08 09:19:07;;;;;;;13.18;6.03;;;;;;;3.58;64.26;100158.35;1702472;83;21632;-55
2021/01/08 09:21:48;;;;;;;10.20;5.70;;;;;;;3.49;64.60;100157.09;1703933;82;21212;-54
2021/01/08 09:24:32;;;;;;;11.97;6.75;;;;;;;3.45;65.17;100155.13;1755558;80;21631;-55
2021/01/08 09:48:39;;;;;;;11.78;7.12;;;;;;;3.21;65.25;100164.23;1803484;78;22787;-56
2021/01/08 09:51:08;;;;;;;10.60;6.05;;;;;;;3.14;65.42;100167.17;1783988;78;21346;-55
2021/01/08 09:53:39;;;;;;;11.40;6.20;;;;;;;3.26;64.90;100172.63;1734182;80;21355;-55
2021/01/08 09:56:12;;;;;;;12.18;5.72;;;;;;;3.40;64.62;100161.51;1785577;78;21203;-55
2021/01/08 09:58:41;;;;;;;11.15;6.08;;;;;;;3.45;64.12;100170.73;1788506;78;21152;-54
2021/01/08 10:01:12;;;;;;;10.68;5.60;;;;;;;3.45;64.12;100162.92;1787586;78;21483;-53
2021/01/08 10:03:49;;;;;;;10.35;5.20;;;;;;;3.43;63.82;100166.08;1787108;78;21140;-54
2021/01/08 10:06:18;;;;;;;13.65;6.25;;;;;;;3.42;63.64;100170.06;1786971;78;22758;-53
2021/01/08 10:08:47;;;;;;;9.83;5.47;;;;;;;3.38;63.54;100166.79;1785800;78;21568;-53
2021/01/08 10:11:27;;;;;;;12.07;4.62;;;;;;;3.39;63.39;100166.31;1756482;80;21467;-54
2021/01/08 10:14:04;;;;;;;10.85;5.15;;;;;;;3.39;63.11;100165.84;1782416;78;21226;-53
2021/01/08 10:16:51;;;;;;;11.50;5.90;;;;;;;3.44;63.01;100178.14;1869891;75;22728;-54
2021/01/08 10:19:20;;;;;;;10.72;5.72;;;;;;;3.41;63.00;100171.80;1830795;77;21170;-52
2021/01/08 10:21:48;;;;;;;12.45;5.55;;;;;;;3.42;62.97;100174.80;1753770;80;21236;-54
2021/01/08 10:24:25;;;;;;;12.95;5.35;;;;;;;3.45;63.19;100178.53;1801651;78;21211;-54
2021/01/08 10:26:54;;;;;;;8.90;4.92;;;;;;;3.45;62.66;100168.13;1802400;77;21174;-54
2021/01/08 10:29:35;;;;;;;10.23;5.37;;;;;;;3.44;62.39;100169.04;1814178;77;21190;-53
2021/01/08 10:32:12;;;;;;;9.68;5.08;;;;;;;3.40;62.30;100171.44;1751510;80;21206;-53
2021/01/08 10:34:44;;;;;;;9.15;5.12;;;;;;;3.34;62.37;100154.38;1760337;80;21167;-53
2021/01/08 10:37:19;;;;;;;12.95;6.45;;;;;;;3.34;62.51;100165.26;1801377;78;21180;-53
2021/01/08 10:39:47;;;;;;;11.12;5.58;;;;;;;3.32;62.69;100168.41;1783818;80;21183;-54
2021/01/08 10:42:15;;;;;;;10.32;5.42;;;;;;;3.35;63.15;100172.98;1783741;80;21573;-53
2021/01/08 10:44:43;;;;;;;10.85;5.37;;;;;;;3.39;63.09;100169.75;1784556;79;21167;-53
2021/01/08 10:47:11;;;;;;;9.18;5.00;;;;;;;3.42;62.89;100171.36;1819668;77;21232;-53
2021/01/08 10:49:40;;;;;;;11.85;5.22;;;;;;;3.45;62.62;100178.53;1760444;79;21234;-54
2021/01/08 10:52:10;;;;;;;9.33;5.20;;;;;;;3.49;62.80;100172.70;1783039;79;21150;-53
2021/01/08 10:54:37;;;;;;;8.13;4.00;;;;;;;3.56;62.17;100177.11;1784835;80;21227;-54
2021/01/08 10:57:06;;;;;;;10.30;4.97;;;;;;;3.58;61.71;100177.86;1753339;80;21216;-53
2021/01/08 10:59:33;;;;;;;8.45;4.37;;;;;;;3.57;61.01;100176.20;1819365;77;22813;-53
2021/01/08 11:02:00;;;;;;;10.25;4.83;;;;;;;3.54;61.11;100171.98;1820123;78;21152;-53
2021/01/08 11:04:30;;;;;;;8.00;4.90;;;;;;;3.52;61.51;100175.14;1796240;78;21216;-54
2021/01/08 11:06:57;;;;;;;10.23;5.05;;;;;;;3.56;61.25;100173.21;1794147;78;21176;-53
2021/01/08 11:09:25;;;;;;;9.43;5.12;;;;;;;3.54;61.12;100180.63;1768374;80;21618;-54
2021/01/08 11:11:53;;;;;;;8.93;5.30;;;;;;;3.56;60.79;100174.52;1801557;77;21223;-54
2021/01/08 11:14:20;;;;;;;8.48;4.85;;;;;;;3.53;61.02;100181.56;1812541;77;21446;-54
2021/01/08 11:16:49;;;;;;;9.68;4.12;;;;;;;3.50;60.77;100180.42;1783022;78;21156;-53
2021/01/08 11:19:16;;;;;;;9.28;5.50;;;;;;;3.48;60.17;100173.17;1782869;79;21211;-52
2021/01/08 11:21:43;;;;;;;7.37;3.83;;;;;;;3.46;60.33;100174.16;1749924;80;21197;-53
2021/01/08 11:24:11;;;;;;;12.18;5.37;;;;;;;3.45;60.24;100173.80;1782653;78;21222;-53
2021/01/08 11:26:38;;;;;;;9.95;5.67;;;;;;;3.44;60.47;100179.45;1767496;80;21191;-54
2021/01/08 11:29:06;;;;;;;9.48;4.60;;;;;;;3.41;60.63;100171.80;1773465;78;21629;-53
2021/01/08 11:31:38;;;;;;;8.33;4.45;;;;;;;3.42;61.05;100181.77;1768703;80;21200;-54
2021/01/08 11:34:09;;;;;;;10.10;5.40;;;;;;;3.44;60.86;100193.75;1767515;80;21211;-54
2021/01/08 11:36:38;;;;;;;7.83;4.62;;;;;;;3.45;60.65;100180.30;1762559;79;22670;-54
2021/01/08 11:39:06;;;;;;;12.55;5.03;;;;;;;3.46;60.63;100181.53;1771894;78;21176;-55
2021/01/08 11:41:33;;;;;;;9.05;5.08;;;;;;;3.46;60.79;100189.33;1799982;77;21195;-55
2021/01/08 11:44:01;;;;;;;10.90;5.35;;;;;;;3.46;61.04;100192.38;1808769;78;21548;-55
2021/01/08 11:46:29;;;;;;;8.68;4.40;;;;;;;3.47;60.84;100194.06;1784600;79;21194;-52
2021/01/08 11:48:56;;;;;;;9.28;4.80;;;;;;;3.48;60.43;100197.02;1790815;78;21960;-55
2021/01/08 11:51:24;;;;;;;9.30;4.10;;;;;;;3.48;60.14;100193.13;1793189;79;21194;-55
2021/01/08 11:53:52;;;;;;;8.13;4.40;;;;;;;3.46;59.68;100194.53;1788297;79;21171;-57
2021/01/08 11:56:29;;;;;;;8.73;4.03;;;;;;;3.45;59.69;100199.34;1773429;80;21589;-55
2021/01/08 11:58:56;;;;;;;9.05;4.47;;;;;;;3.42;59.88;100202.11;1788594;78;21195;-54
2021/01/08 12:01:27;;;;;;;8.13;3.47;;;;;;;3.40;59.92;100200.05;1807351;78;22821;-55
2021/01/08 12:03:57;;;;;;;10.95;4.50;;;;;;;3.38;59.61;100203.64;1778897;78;21245;-55
2021/01/08 12:06:29;;;;;;;10.50;4.65;;;;;;;3.37;59.11;100214.52;1784177;79;21618;-55
2021/01/08 12:08:58;;;;;;;9.95;4.97;;;;;;;3.33;59.36;100215.61;1787610;78;21215;-65
2021/01/08 12:11:27;;;;;;;7.78;4.25;;;;;;;3.31;59.87;100199.22;1793121;78;21374;-68
2021/01/08 12:13:55;;;;;;;8.98;4.45;;;;;;;3.31;59.85;100201.39;1743692;80;21653;-67
2021/01/08 12:16:29;;;;;;;8.85;4.33;;;;;;;3.32;59.84;100196.55;1767305;80;21167;-67